KTMB

Miami Executive Airport

Miami, Florida, USA
KTMB 221120Z 2212/2312 VRB04KT P6SM FEW040 BKN060 FM221400 10015KT P6SM SCT040
Issued Valid From Valid To
Jan-22 @ 11:20 UTC
(6 hours ago)
Jan-22 @ 12:00 UTC
(6 hours ago)
Jan-23 @ 12:00 UTC
(in 18 hours)
Expired Click to View Jan-22 @ 12:00 to Jan-22 @ 14:00
KTMB 221120Z 2212/2312 VRB04KT P6SM FEW040 BKN060
Wind Visibility Clouds
Variable at 4 knots Greater than 6 miles
  • Few at 4,000' AGL
  • Broken at 6,000' AGL
From Jan-22 @ 14:00 to Jan-23 @ 12:00
FM221400 10015KT P6SM SCT040
Wind Visibility Clouds
100° at 15 knots Greater than 6 miles
  • Scattered at 4,000' AGL
KTMB 221120Z 2212/2312 VRB04KT P6SM FEW040 BKN060 FM221400 10015KT P6SM SCT040
Issued Jan-22 @ 11:20 UTC
(6 hours ago)
Valid From Jan-22 @ 12:00 UTC
(6 hours ago)
Valid To Jan-23 @ 12:00 UTC
(in 18 hours)
Jan-22 @ 12:00 - Jan-22 @ 14:00
Wind Visibility
Variable at 4 knots Greater than 6 miles
Clouds
  • Few at 4,000' AGL
  • Broken at 6,000' AGL
From Jan-22 @ 14:00 - Jan-23 @ 12:00
Wind Visibility
100° at 15 knots Greater than 6 miles
Clouds
  • Scattered at 4,000' AGL